sensor_id;sensor_type;location;lat;lon;timestamp;temperature;humidity
2543;DHT22;1116;51.502;7.414;2022-10-31T00:00:40;15.70;27.10
2543;DHT22;1116;51.502;7.414;2022-10-31T00:03:11;15.80;27.90
2543;DHT22;1116;51.502;7.414;2022-10-31T00:05:46;15.90;27.50
2543;DHT22;1116;51.502;7.414;2022-10-31T00:08:19;15.90;28.00
2543;DHT22;1116;51.502;7.414;2022-10-31T00:10:50;15.90;28.10
2543;DHT22;1116;51.502;7.414;2022-10-31T00:13:22;16.00;28.80
2543;DHT22;1116;51.502;7.414;2022-10-31T00:15:54;16.00;28.70
2543;DHT22;1116;51.502;7.414;2022-10-31T00:18:25;16.20;28.70
2543;DHT22;1116;51.502;7.414;2022-10-31T00:20:59;16.10;29.40
2543;DHT22;1116;51.502;7.414;2022-10-31T00:23:37;16.10;28.80
2543;DHT22;1116;51.502;7.414;2022-10-31T00:26:08;16.10;28.00
2543;DHT22;1116;51.502;7.414;2022-10-31T00:28:42;16.10;28.80
2543;DHT22;1116;51.502;7.414;2022-10-31T00:31:14;16.20;28.60
2543;DHT22;1116;51.502;7.414;2022-10-31T00:33:46;16.30;29.10
2543;DHT22;1116;51.502;7.414;2022-10-31T00:36:18;16.20;28.50
2543;DHT22;1116;51.502;7.414;2022-10-31T00:38:52;16.20;29.10
2543;DHT22;1116;51.502;7.414;2022-10-31T00:41:26;16.20;29.00
2543;DHT22;1116;51.502;7.414;2022-10-31T00:43:59;16.20;28.70
2543;DHT22;1116;51.502;7.414;2022-10-31T00:46:30;16.30;29.60
2543;DHT22;1116;51.502;7.414;2022-10-31T00:49:01;16.20;29.10
2543;DHT22;1116;51.502;7.414;2022-10-31T00:51:32;16.20;30.10
2543;DHT22;1116;51.502;7.414;2022-10-31T00:54:05;16.20;30.50
2543;DHT22;1116;51.502;7.414;2022-10-31T00:56:36;16.20;30.40
2543;DHT22;1116;51.502;7.414;2022-10-31T00:59:07;16.10;29.40
2543;DHT22;1116;51.502;7.414;2022-10-31T01:01:38;16.10;30.00
2543;DHT22;1116;51.502;7.414;2022-10-31T01:04:09;16.10;30.20
2543;DHT22;1116;51.502;7.414;2022-10-31T01:06:43;16.10;30.10
2543;DHT22;1116;51.502;7.414;2022-10-31T01:09:16;16.20;30.80
2543;DHT22;1116;51.502;7.414;2022-10-31T01:11:47;16.10;30.10
2543;DHT22;1116;51.502;7.414;2022-10-31T01:14:20;16.10;30.80
2543;DHT22;1116;51.502;7.414;2022-10-31T01:16:51;16.10;30.30
2543;DHT22;1116;51.502;7.414;2022-10-31T01:19:22;16.00;30.00
2543;DHT22;1116;51.502;7.414;2022-10-31T01:21:54;16.10;31.60
2543;DHT22;1116;51.502;7.414;2022-10-31T01:24:27;16.00;30.90
2543;DHT22;1116;51.502;7.414;2022-10-31T01:26:58;16.00;30.40
2543;DHT22;1116;51.502;7.414;2022-10-31T01:29:29;16.00;30.60
2543;DHT22;1116;51.502;7.414;2022-10-31T01:32:00;16.00;32.00
2543;DHT22;1116;51.502;7.414;2022-10-31T01:34:30;16.30;32.30
2543;DHT22;1116;51.502;7.414;2022-10-31T01:37:01;16.00;33.40
2543;DHT22;1116;51.502;7.414;2022-10-31T01:39:35;16.00;32.00
2543;DHT22;1116;51.502;7.414;2022-10-31T01:42:06;16.00;32.10
2543;DHT22;1116;51.502;7.414;2022-10-31T01:45:01;16.00;32.10
2543;DHT22;1116;51.502;7.414;2022-10-31T01:47:38;16.10;32.60
2543;DHT22;1116;51.502;7.414;2022-10-31T01:50:26;16.10;33.50
2543;DHT22;1116;51.502;7.414;2022-10-31T01:53:00;16.20;32.50
2543;DHT22;1116;51.502;7.414;2022-10-31T01:55:41;16.50;31.40
2543;DHT22;1116;51.502;7.414;2022-10-31T01:58:20;16.20;31.50
2543;DHT22;1116;51.502;7.414;2022-10-31T02:00:54;16.20;31.60
2543;DHT22;1116;51.502;7.414;2022-10-31T02:03:32;16.30;30.70
2543;DHT22;1116;51.502;7.414;2022-10-31T02:06:05;16.30;31.30
2543;DHT22;1116;51.502;7.414;2022-10-31T02:08:38;16.30;31.20
2543;DHT22;1116;51.502;7.414;2022-10-31T02:11:12;16.30;31.70
2543;DHT22;1116;51.502;7.414;2022-10-31T02:13:43;16.10;32.80
2543;DHT22;1116;51.502;7.414;2022-10-31T02:16:14;16.10;32.30
2543;DHT22;1116;51.502;7.414;2022-10-31T02:18:45;16.10;31.80
2543;DHT22;1116;51.502;7.414;2022-10-31T02:21:19;16.00;31.60
2543;DHT22;1116;51.502;7.414;2022-10-31T02:24:28;15.90;31.70
2543;DHT22;1116;51.502;7.414;2022-10-31T02:27:15;15.80;31.40
2543;DHT22;1116;51.502;7.414;2022-10-31T02:30:04;15.70;31.80
2543;DHT22;1116;51.502;7.414;2022-10-31T02:35:53;15.50;31.60
2543;DHT22;1116;51.502;7.414;2022-10-31T02:38:34;15.40;31.10
2543;DHT22;1116;51.502;7.414;2022-10-31T02:41:14;15.30;31.70
2543;DHT22;1116;51.502;7.414;2022-10-31T02:43:55;15.30;32.80
2543;DHT22;1116;51.502;7.414;2022-10-31T02:46:34;15.20;31.40
2543;DHT22;1116;51.502;7.414;2022-10-31T02:49:09;15.10;32.60
2543;DHT22;1116;51.502;7.414;2022-10-31T02:51:45;15.10;33.00
2543;DHT22;1116;51.502;7.414;2022-10-31T02:54:19;15.00;31.90
2543;DHT22;1116;51.502;7.414;2022-10-31T02:56:54;15.00;32.30
2543;DHT22;1116;51.502;7.414;2022-10-31T02:59:28;15.00;32.70
2543;DHT22;1116;51.502;7.414;2022-10-31T03:02:16;14.90;31.60
2543;DHT22;1116;51.502;7.414;2022-10-31T03:05:11;14.80;33.60
2543;DHT22;1116;51.502;7.414;2022-10-31T03:07:52;14.80;33.00
2543;DHT22;1116;51.502;7.414;2022-10-31T03:10:35;14.60;32.90
2543;DHT22;1116;51.502;7.414;2022-10-31T03:13:10;14.60;33.20
2543;DHT22;1116;51.502;7.414;2022-10-31T03:15:45;14.60;35.10
2543;DHT22;1116;51.502;7.414;2022-10-31T03:18:22;15.00;35.90
2543;DHT22;1116;51.502;7.414;2022-10-31T03:21:04;14.60;33.60
2543;DHT22;1116;51.502;7.414;2022-10-31T03:23:41;14.60;34.70
2543;DHT22;1116;51.502;7.414;2022-10-31T03:26:15;14.50;34.50
2543;DHT22;1116;51.502;7.414;2022-10-31T03:28:51;14.40;33.90
2543;DHT22;1116;51.502;7.414;2022-10-31T03:31:29;14.40;35.70
2543;DHT22;1116;51.502;7.414;2022-10-31T03:34:01;14.60;34.10
2543;DHT22;1116;51.502;7.414;2022-10-31T03:36:34;14.30;34.30
2543;DHT22;1116;51.502;7.414;2022-10-31T03:39:13;14.20;35.50
2543;DHT22;1116;51.502;7.414;2022-10-31T03:41:53;14.10;35.30
2543;DHT22;1116;51.502;7.414;2022-10-31T03:44:26;14.20;35.40
2543;DHT22;1116;51.502;7.414;2022-10-31T03:46:58;14.10;35.40
2543;DHT22;1116;51.502;7.414;2022-10-31T03:49:30;14.10;35.40
2543;DHT22;1116;51.502;7.414;2022-10-31T03:52:07;14.10;38.50
2543;DHT22;1116;51.502;7.414;2022-10-31T03:54:45;14.00;38.50
2543;DHT22;1116;51.502;7.414;2022-10-31T03:57:21;14.40;37.30
2543;DHT22;1116;51.502;7.414;2022-10-31T03:59:57;14.00;36.30
2543;DHT22;1116;51.502;7.414;2022-10-31T04:02:32;14.20;38.80
2543;DHT22;1116;51.502;7.414;2022-10-31T04:05:04;14.00;40.60
2543;DHT22;1116;51.502;7.414;2022-10-31T04:07:41;14.00;38.70
2543;DHT22;1116;51.502;7.414;2022-10-31T04:10:16;13.90;41.70
2543;DHT22;1116;51.502;7.414;2022-10-31T04:12:50;13.90;43.90
2543;DHT22;1116;51.502;7.414;2022-10-31T04:15:24;13.90;55.70
2543;DHT22;1116;51.502;7.414;2022-10-31T04:17:58;13.90;69.70
2543;DHT22;1116;51.502;7.414;2022-10-31T04:20:30;13.90;99.90
2543;DHT22;1116;51.502;7.414;2022-10-31T04:23:05;13.90;99.90
2543;DHT22;1116;51.502;7.414;2022-10-31T04:25:44;13.90;99.90
2543;DHT22;1116;51.502;7.414;2022-10-31T04:28:15;13.90;99.90
2543;DHT22;1116;51.502;7.414;2022-10-31T04:31:10;14.30;99.90
2543;DHT22;1116;51.502;7.414;2022-10-31T04:33:41;13.90;99.90
2543;DHT22;1116;51.502;7.414;2022-10-31T04:36:12;14.00;99.90
2543;DHT22;1116;51.502;7.414;2022-10-31T04:38:43;14.00;99.90
2543;DHT22;1116;51.502;7.414;2022-10-31T04:41:22;14.50;99.90
2543;DHT22;1116;51.502;7.414;2022-10-31T04:43:53;14.00;99.90
2543;DHT22;1116;51.502;7.414;2022-10-31T04:46:24;14.00;99.90
2543;DHT22;1116;51.502;7.414;2022-10-31T04:48:55;14.00;99.90
2543;DHT22;1116;51.502;7.414;2022-10-31T04:51:26;14.00;99.90
2543;DHT22;1116;51.502;7.414;2022-10-31T04:54:02;13.90;99.90
2543;DHT22;1116;51.502;7.414;2022-10-31T04:56:35;13.90;99.90
2543;DHT22;1116;51.502;7.414;2022-10-31T04:59:08;13.90;98.90
2543;DHT22;1116;51.502;7.414;2022-10-31T05:01:40;13.90;99.40
2543;DHT22;1116;51.502;7.414;2022-10-31T05:04:13;13.80;99.90
2543;DHT22;1116;51.502;7.414;2022-10-31T05:06:44;13.80;98.80
2543;DHT22;1116;51.502;7.414;2022-10-31T05:09:15;13.80;97.10
2543;DHT22;1116;51.502;7.414;2022-10-31T05:11:52;13.70;99.00
2543;DHT22;1116;51.502;7.414;2022-10-31T05:14:23;13.70;99.90
2543;DHT22;1116;51.502;7.414;2022-10-31T05:16:54;13.80;97.20
2543;DHT22;1116;51.502;7.414;2022-10-31T05:19:25;13.60;97.40
2543;DHT22;1116;51.502;7.414;2022-10-31T05:21:56;13.60;96.20
2543;DHT22;1116;51.502;7.414;2022-10-31T05:24:27;14.00;96.70
2543;DHT22;1116;51.502;7.414;2022-10-31T05:27:03;13.60;96.70
2543;DHT22;1116;51.502;7.414;2022-10-31T05:29:34;13.50;93.60
2543;DHT22;1116;51.502;7.414;2022-10-31T05:32:11;13.50;93.40
2543;DHT22;1116;51.502;7.414;2022-10-31T05:34:44;13.40;94.80
2543;DHT22;1116;51.502;7.414;2022-10-31T05:37:15;13.40;94.80
2543;DHT22;1116;51.502;7.414;2022-10-31T05:39:47;13.40;94.00
2543;DHT22;1116;51.502;7.414;2022-10-31T05:42:20;13.50;94.40
2543;DHT22;1116;51.502;7.414;2022-10-31T05:44:51;13.40;94.90
2543;DHT22;1116;51.502;7.414;2022-10-31T05:47:22;13.40;92.10
2543;DHT22;1116;51.502;7.414;2022-10-31T05:49:53;13.40;92.20
2543;DHT22;1116;51.502;7.414;2022-10-31T05:52:24;13.30;92.20
2543;DHT22;1116;51.502;7.414;2022-10-31T05:54:55;13.30;93.00
2543;DHT22;1116;51.502;7.414;2022-10-31T05:57:32;13.30;92.20
2543;DHT22;1116;51.502;7.414;2022-10-31T06:00:04;13.30;92.40
2543;DHT22;1116;51.502;7.414;2022-10-31T06:02:37;13.30;92.60
2543;DHT22;1116;51.502;7.414;2022-10-31T06:05:11;13.60;92.00
2543;DHT22;1116;51.502;7.414;2022-10-31T06:07:45;13.40;92.20
2543;DHT22;1116;51.502;7.414;2022-10-31T06:10:17;13.40;92.10
2543;DHT22;1116;51.502;7.414;2022-10-31T06:12:51;13.30;90.30
2543;DHT22;1116;51.502;7.414;2022-10-31T06:15:22;13.30;92.20
2543;DHT22;1116;51.502;7.414;2022-10-31T06:18:02;13.30;91.10
2543;DHT22;1116;51.502;7.414;2022-10-31T06:20:36;13.30;92.20
2543;DHT22;1116;51.502;7.414;2022-10-31T06:23:07;13.40;91.50
2543;DHT22;1116;51.502;7.414;2022-10-31T06:25:38;13.30;91.10
2543;DHT22;1116;51.502;7.414;2022-10-31T06:28:12;13.20;92.70
2543;DHT22;1116;51.502;7.414;2022-10-31T06:30:43;13.20;92.50
2543;DHT22;1116;51.502;7.414;2022-10-31T06:33:14;13.20;99.90
2543;DHT22;1116;51.502;7.414;2022-10-31T06:35:45;13.20;98.90
2543;DHT22;1116;51.502;7.414;2022-10-31T06:38:16;13.70;99.90
2543;DHT22;1116;51.502;7.414;2022-10-31T06:40:47;13.30;99.90
2543;DHT22;1116;51.502;7.414;2022-10-31T06:43:23;13.30;99.90
2543;DHT22;1116;51.502;7.414;2022-10-31T06:45:54;13.30;99.90
2543;DHT22;1116;51.502;7.414;2022-10-31T06:48:25;13.40;99.90
2543;DHT22;1116;51.502;7.414;2022-10-31T06:51:00;13.40;99.90
2543;DHT22;1116;51.502;7.414;2022-10-31T06:53:31;13.50;99.90
2543;DHT22;1116;51.502;7.414;2022-10-31T06:56:06;13.50;99.90
2543;DHT22;1116;51.502;7.414;2022-10-31T06:58:39;13.50;99.90
2543;DHT22;1116;51.502;7.414;2022-10-31T07:01:10;13.60;99.90
2543;DHT22;1116;51.502;7.414;2022-10-31T07:03:42;13.60;99.90
2543;DHT22;1116;51.502;7.414;2022-10-31T07:06:12;13.70;99.90
2543;DHT22;1116;51.502;7.414;2022-10-31T07:08:43;13.70;99.90
2543;DHT22;1116;51.502;7.414;2022-10-31T07:11:20;13.90;99.90
2543;DHT22;1116;51.502;7.414;2022-10-31T07:13:53;13.80;99.90
2543;DHT22;1116;51.502;7.414;2022-10-31T07:16:25;14.00;99.90
2543;DHT22;1116;51.502;7.414;2022-10-31T07:18:58;13.80;99.90
2543;DHT22;1116;51.502;7.414;2022-10-31T07:21:29;13.90;99.90
2543;DHT22;1116;51.502;7.414;2022-10-31T07:24:00;14.20;99.90
2543;DHT22;1116;51.502;7.414;2022-10-31T07:26:32;13.90;99.90
2543;DHT22;1116;51.502;7.414;2022-10-31T07:29:06;13.90;99.90
2543;DHT22;1116;51.502;7.414;2022-10-31T07:31:37;14.00;99.90
2543;DHT22;1116;51.502;7.414;2022-10-31T07:34:08;14.00;99.90
2543;DHT22;1116;51.502;7.414;2022-10-31T07:36:39;14.00;99.90
2543;DHT22;1116;51.502;7.414;2022-10-31T07:39:13;14.10;99.90
2543;DHT22;1116;51.502;7.414;2022-10-31T07:41:44;14.10;99.90
2543;DHT22;1116;51.502;7.414;2022-10-31T07:44:20;14.10;99.90
2543;DHT22;1116;51.502;7.414;2022-10-31T07:46:51;14.10;99.90
2543;DHT22;1116;51.502;7.414;2022-10-31T07:49:22;14.10;99.90
2543;DHT22;1116;51.502;7.414;2022-10-31T07:51:53;14.20;99.90
2543;DHT22;1116;51.502;7.414;2022-10-31T07:54:25;14.70;99.90
2543;DHT22;1116;51.502;7.414;2022-10-31T07:56:59;14.60;99.90
2543;DHT22;1116;51.502;7.414;2022-10-31T07:59:32;14.40;99.90
2543;DHT22;1116;51.502;7.414;2022-10-31T08:02:03;14.40;99.30
2543;DHT22;1116;51.502;7.414;2022-10-31T08:04:34;14.50;99.40
2543;DHT22;1116;51.502;7.414;2022-10-31T08:07:07;14.50;98.90
2543;DHT22;1116;51.502;7.414;2022-10-31T08:09:41;14.50;99.90
2543;DHT22;1116;51.502;7.414;2022-10-31T08:12:11;14.90;99.60
2543;DHT22;1116;51.502;7.414;2022-10-31T08:14:49;14.60;99.30
2543;DHT22;1116;51.502;7.414;2022-10-31T08:17:21;14.90;99.90
2543;DHT22;1116;51.502;7.414;2022-10-31T08:19:51;14.70;99.30
2543;DHT22;1116;51.502;7.414;2022-10-31T08:22:22;15.20;99.30
2543;DHT22;1116;51.502;7.414;2022-10-31T08:24:53;14.80;93.90
2543;DHT22;1116;51.502;7.414;2022-10-31T08:27:24;15.30;93.10
2543;DHT22;1116;51.502;7.414;2022-10-31T08:29:58;15.20;93.00
2543;DHT22;1116;51.502;7.414;2022-10-31T08:32:32;14.80;92.40
2543;DHT22;1116;51.502;7.414;2022-10-31T08:35:03;14.70;92.30
2543;DHT22;1116;51.502;7.414;2022-10-31T08:37:34;14.70;92.60
2543;DHT22;1116;51.502;7.414;2022-10-31T08:40:07;14.90;92.90
2543;DHT22;1116;51.502;7.414;2022-10-31T08:42:40;15.00;94.10
2543;DHT22;1116;51.502;7.414;2022-10-31T08:45:14;15.10;93.00
2543;DHT22;1116;51.502;7.414;2022-10-31T08:47:45;15.20;85.00
2543;DHT22;1116;51.502;7.414;2022-10-31T08:50:16;15.20;84.50
2543;DHT22;1116;51.502;7.414;2022-10-31T08:52:47;15.30;85.50
2543;DHT22;1116;51.502;7.414;2022-10-31T08:55:33;15.50;80.30
2543;DHT22;1116;51.502;7.414;2022-10-31T08:58:06;15.50;76.90
2543;DHT22;1116;51.502;7.414;2022-10-31T09:00:43;15.60;73.60
2543;DHT22;1116;51.502;7.414;2022-10-31T09:03:15;15.60;68.60
2543;DHT22;1116;51.502;7.414;2022-10-31T09:05:47;15.60;67.60
2543;DHT22;1116;51.502;7.414;2022-10-31T09:08:20;15.60;64.40
2543;DHT22;1116;51.502;7.414;2022-10-31T09:10:51;16.00;66.20
2543;DHT22;1116;51.502;7.414;2022-10-31T09:13:27;15.70;62.10
2543;DHT22;1116;51.502;7.414;2022-10-31T09:16:04;15.70;61.20
2543;DHT22;1116;51.502;7.414;2022-10-31T09:18:35;15.80;57.40
2543;DHT22;1116;51.502;7.414;2022-10-31T09:21:07;15.80;57.50
2543;DHT22;1116;51.502;7.414;2022-10-31T09:23:38;16.20;55.60
2543;DHT22;1116;51.502;7.414;2022-10-31T09:26:09;16.00;53.80
2543;DHT22;1116;51.502;7.414;2022-10-31T09:28:41;16.00;54.60
2543;DHT22;1116;51.502;7.414;2022-10-31T09:31:15;16.00;54.10
2543;DHT22;1116;51.502;7.414;2022-10-31T09:33:46;16.10;53.40
2543;DHT22;1116;51.502;7.414;2022-10-31T09:36:17;16.10;53.50
2543;DHT22;1116;51.502;7.414;2022-10-31T09:38:51;16.10;53.70
2543;DHT22;1116;51.502;7.414;2022-10-31T09:41:29;16.40;53.10
2543;DHT22;1116;51.502;7.414;2022-10-31T09:44:07;16.20;52.80
2543;DHT22;1116;51.502;7.414;2022-10-31T09:46:53;16.60;52.60
2543;DHT22;1116;51.502;7.414;2022-10-31T09:49:37;16.30;50.60
2543;DHT22;1116;51.502;7.414;2022-10-31T09:52:18;16.40;50.70
2543;DHT22;1116;51.502;7.414;2022-10-31T09:54:53;16.60;50.00
2543;DHT22;1116;51.502;7.414;2022-10-31T09:57:28;16.80;48.30
2543;DHT22;1116;51.502;7.414;2022-10-31T10:00:03;16.60;46.10
2543;DHT22;1116;51.502;7.414;2022-10-31T10:02:49;16.60;48.00
2543;DHT22;1116;51.502;7.414;2022-10-31T10:05:26;16.80;44.00
2543;DHT22;1116;51.502;7.414;2022-10-31T10:08:02;16.80;44.60
2543;DHT22;1116;51.502;7.414;2022-10-31T10:10:44;16.80;43.80
2543;DHT22;1116;51.502;7.414;2022-10-31T10:13:39;16.90;42.30
2543;DHT22;1116;51.502;7.414;2022-10-31T10:16:24;17.00;39.30
2543;DHT22;1116;51.502;7.414;2022-10-31T10:19:12;17.10;39.90
2543;DHT22;1116;51.502;7.414;2022-10-31T10:21:55;17.20;39.00
2543;DHT22;1116;51.502;7.414;2022-10-31T10:24:39;17.50;35.80
2543;DHT22;1116;51.502;7.414;2022-10-31T10:27:19;17.20;36.20
2543;DHT22;1116;51.502;7.414;2022-10-31T10:30:00;17.30;35.80
2543;DHT22;1116;51.502;7.414;2022-10-31T10:32:40;17.40;35.20
2543;DHT22;1116;51.502;7.414;2022-10-31T10:35:29;17.50;32.90
2543;DHT22;1116;51.502;7.414;2022-10-31T10:38:10;17.60;32.00
2543;DHT22;1116;51.502;7.414;2022-10-31T10:40:42;17.70;32.20
2543;DHT22;1116;51.502;7.414;2022-10-31T10:43:22;17.70;31.80
2543;DHT22;1116;51.502;7.414;2022-10-31T10:49:16;17.90;28.70
2543;DHT22;1116;51.502;7.414;2022-10-31T10:51:57;18.00;26.10
2543;DHT22;1116;51.502;7.414;2022-10-31T10:55:01;18.00;25.70
2543;DHT22;1116;51.502;7.414;2022-10-31T10:57:45;18.10;25.20
2543;DHT22;1116;51.502;7.414;2022-10-31T11:00:23;18.00;25.30
2543;DHT22;1116;51.502;7.414;2022-10-31T11:02:55;18.00;25.20
2543;DHT22;1116;51.502;7.414;2022-10-31T11:05:33;18.10;26.60
2543;DHT22;1116;51.502;7.414;2022-10-31T11:08:10;18.10;25.20
2543;DHT22;1116;51.502;7.414;2022-10-31T11:10:44;18.10;26.30
2543;DHT22;1116;51.502;7.414;2022-10-31T11:13:22;18.30;25.00
2543;DHT22;1116;51.502;7.414;2022-10-31T11:15:59;18.30;23.30
2543;DHT22;1116;51.502;7.414;2022-10-31T11:18:32;18.40;25.20
2543;DHT22;1116;51.502;7.414;2022-10-31T11:21:05;18.40;21.90
2543;DHT22;1116;51.502;7.414;2022-10-31T11:23:39;18.50;21.90
2543;DHT22;1116;51.502;7.414;2022-10-31T11:26:20;18.50;20.30
2543;DHT22;1116;51.502;7.414;2022-10-31T11:28:56;18.60;20.30
2543;DHT22;1116;51.502;7.414;2022-10-31T11:31:28;18.70;20.20
2543;DHT22;1116;51.502;7.414;2022-10-31T11:34:02;18.70;19.80
2543;DHT22;1116;51.502;7.414;2022-10-31T11:36:36;18.80;20.50
2543;DHT22;1116;51.502;7.414;2022-10-31T11:39:20;18.80;19.50
2543;DHT22;1116;51.502;7.414;2022-10-31T11:41:54;18.90;18.80
2543;DHT22;1116;51.502;7.414;2022-10-31T11:44:27;18.90;17.00
2543;DHT22;1116;51.502;7.414;2022-10-31T11:47:01;18.90;18.40
2543;DHT22;1116;51.502;7.414;2022-10-31T11:49:37;19.00;18.80
2543;DHT22;1116;51.502;7.414;2022-10-31T11:52:13;19.00;16.10
2543;DHT22;1116;51.502;7.414;2022-10-31T11:54:50;19.00;16.10
2543;DHT22;1116;51.502;7.414;2022-10-31T11:57:23;18.90;15.50
2543;DHT22;1116;51.502;7.414;2022-10-31T11:59:56;19.00;17.10
2543;DHT22;1116;51.502;7.414;2022-10-31T12:02:33;19.30;17.20
2543;DHT22;1116;51.502;7.414;2022-10-31T12:05:10;19.20;16.00
2543;DHT22;1116;51.502;7.414;2022-10-31T12:07:48;19.20;15.90
2543;DHT22;1116;51.502;7.414;2022-10-31T12:10:27;19.20;16.40
2543;DHT22;1116;51.502;7.414;2022-10-31T12:13:05;19.40;16.70
2543;DHT22;1116;51.502;7.414;2022-10-31T12:15:44;19.50;17.60
2543;DHT22;1116;51.502;7.414;2022-10-31T12:18:36;19.50;16.40
2543;DHT22;1116;51.502;7.414;2022-10-31T12:21:18;19.50;15.80
2543;DHT22;1116;51.502;7.414;2022-10-31T12:24:00;19.50;16.10
2543;DHT22;1116;51.502;7.414;2022-10-31T12:26:41;19.50;14.90
2543;DHT22;1116;51.502;7.414;2022-10-31T12:29:33;19.50;15.50
2543;DHT22;1116;51.502;7.414;2022-10-31T12:32:22;19.70;15.40
2543;DHT22;1116;51.502;7.414;2022-10-31T12:35:08;19.80;15.40
2543;DHT22;1116;51.502;7.414;2022-10-31T12:37:57;19.70;14.10
2543;DHT22;1116;51.502;7.414;2022-10-31T12:40:42;19.90;14.50
2543;DHT22;1116;51.502;7.414;2022-10-31T12:43:32;20.10;14.80
2543;DHT22;1116;51.502;7.414;2022-10-31T12:46:12;19.90;14.70
2543;DHT22;1116;51.502;7.414;2022-10-31T12:52:04;19.90;13.50
2543;DHT22;1116;51.502;7.414;2022-10-31T12:54:48;20.20;13.60
2543;DHT22;1116;51.502;7.414;2022-10-31T12:57:26;20.00;14.20
2543;DHT22;1116;51.502;7.414;2022-10-31T13:00:03;20.00;13.30
2543;DHT22;1116;51.502;7.414;2022-10-31T13:02:39;20.00;12.40
2543;DHT22;1116;51.502;7.414;2022-10-31T13:05:17;19.90;12.30
2543;DHT22;1116;51.502;7.414;2022-10-31T13:07:57;19.90;12.30
2543;DHT22;1116;51.502;7.414;2022-10-31T13:10:33;20.00;12.20
2543;DHT22;1116;51.502;7.414;2022-10-31T13:13:10;20.10;11.50
2543;DHT22;1116;51.502;7.414;2022-10-31T13:15:50;20.00;11.60
2543;DHT22;1116;51.502;7.414;2022-10-31T13:18:27;20.10;12.30
2543;DHT22;1116;51.502;7.414;2022-10-31T13:21:02;20.10;12.50
2543;DHT22;1116;51.502;7.414;2022-10-31T13:23:36;20.10;12.40
2543;DHT22;1116;51.502;7.414;2022-10-31T13:26:37;20.10;11.90
2543;DHT22;1116;51.502;7.414;2022-10-31T13:29:15;20.10;12.40
2543;DHT22;1116;51.502;7.414;2022-10-31T13:31:50;20.20;12.40
2543;DHT22;1116;51.502;7.414;2022-10-31T13:34:26;20.30;12.80
2543;DHT22;1116;51.502;7.414;2022-10-31T13:37:04;20.10;12.40
2543;DHT22;1116;51.502;7.414;2022-10-31T13:39:50;20.30;12.60
2543;DHT22;1116;51.502;7.414;2022-10-31T13:42:28;20.30;12.70
2543;DHT22;1116;51.502;7.414;2022-10-31T13:45:16;20.30;12.90
2543;DHT22;1116;51.502;7.414;2022-10-31T13:48:01;20.40;11.50
2543;DHT22;1116;51.502;7.414;2022-10-31T13:50:32;20.40;14.40
2543;DHT22;1116;51.502;7.414;2022-10-31T13:53:13;20.30;14.20
2543;DHT22;1116;51.502;7.414;2022-10-31T13:55:45;20.40;14.00
2543;DHT22;1116;51.502;7.414;2022-10-31T13:58:25;20.40;13.50
2543;DHT22;1116;51.502;7.414;2022-10-31T14:01:05;20.40;14.20
2543;DHT22;1116;51.502;7.414;2022-10-31T14:03:47;20.50;13.40
2543;DHT22;1116;51.502;7.414;2022-10-31T14:06:56;20.50;15.00
2543;DHT22;1116;51.502;7.414;2022-10-31T14:09:31;20.30;17.40
2543;DHT22;1116;51.502;7.414;2022-10-31T14:12:08;20.30;19.00
2543;DHT22;1116;51.502;7.414;2022-10-31T14:14:44;20.30;19.20
2543;DHT22;1116;51.502;7.414;2022-10-31T14:17:22;20.30;19.00
2543;DHT22;1116;51.502;7.414;2022-10-31T14:23:35;20.20;19.40
2543;DHT22;1116;51.502;7.414;2022-10-31T14:26:33;20.10;20.00
2543;DHT22;1116;51.502;7.414;2022-10-31T14:29:23;20.20;18.40
2543;DHT22;1116;51.502;7.414;2022-10-31T14:34:53;20.30;9.70
2543;DHT22;1116;51.502;7.414;2022-10-31T14:37:35;20.30;8.00
2543;DHT22;1116;51.502;7.414;2022-10-31T14:40:29;20.40;7.80
2543;DHT22;1116;51.502;7.414;2022-10-31T14:43:36;20.40;8.00
2543;DHT22;1116;51.502;7.414;2022-10-31T14:46:17;20.40;7.50
2543;DHT22;1116;51.502;7.414;2022-10-31T14:49:03;20.40;7.10
2543;DHT22;1116;51.502;7.414;2022-10-31T14:51:39;20.40;7.00
2543;DHT22;1116;51.502;7.414;2022-10-31T14:54:17;20.30;7.00
2543;DHT22;1116;51.502;7.414;2022-10-31T14:56:50;20.40;7.80
2543;DHT22;1116;51.502;7.414;2022-10-31T14:59:29;20.30;7.00
2543;DHT22;1116;51.502;7.414;2022-10-31T15:02:08;20.20;7.00
2543;DHT22;1116;51.502;7.414;2022-10-31T15:04:40;20.20;7.40
2543;DHT22;1116;51.502;7.414;2022-10-31T15:07:15;20.50;8.10
2543;DHT22;1116;51.502;7.414;2022-10-31T15:10:01;20.20;7.30
2543;DHT22;1116;51.502;7.414;2022-10-31T15:12:35;20.20;7.30
2543;DHT22;1116;51.502;7.414;2022-10-31T15:15:16;20.30;7.60
2543;DHT22;1116;51.502;7.414;2022-10-31T15:17:49;20.60;7.40
2543;DHT22;1116;51.502;7.414;2022-10-31T15:20:24;20.20;8.10
2543;DHT22;1116;51.502;7.414;2022-10-31T15:22:57;20.20;10.20
2543;DHT22;1116;51.502;7.414;2022-10-31T15:25:34;20.20;9.50
2543;DHT22;1116;51.502;7.414;2022-10-31T15:28:13;20.20;10.60
2543;DHT22;1116;51.502;7.414;2022-10-31T15:30:52;20.10;9.20
2543;DHT22;1116;51.502;7.414;2022-10-31T15:33:27;20.10;10.20
2543;DHT22;1116;51.502;7.414;2022-10-31T15:36:05;19.90;9.40
2543;DHT22;1116;51.502;7.414;2022-10-31T15:38:39;19.90;10.80
2543;DHT22;1116;51.502;7.414;2022-10-31T15:41:27;19.90;9.30
2543;DHT22;1116;51.502;7.414;2022-10-31T15:44:03;19.90;9.70
2543;DHT22;1116;51.502;7.414;2022-10-31T15:46:35;19.80;11.00
2543;DHT22;1116;51.502;7.414;2022-10-31T15:49:29;19.80;9.70
2543;DHT22;1116;51.502;7.414;2022-10-31T15:52:12;19.80;9.50
2543;DHT22;1116;51.502;7.414;2022-10-31T15:54:50;19.80;9.50
2543;DHT22;1116;51.502;7.414;2022-10-31T15:57:29;19.70;9.90
2543;DHT22;1116;51.502;7.414;2022-10-31T16:00:01;19.70;10.00
2543;DHT22;1116;51.502;7.414;2022-10-31T16:02:33;19.60;9.90
2543;DHT22;1116;51.502;7.414;2022-10-31T16:05:17;20.00;9.40
2543;DHT22;1116;51.502;7.414;2022-10-31T16:07:49;19.60;9.20
2543;DHT22;1116;51.502;7.414;2022-10-31T16:10:25;19.60;10.10
2543;DHT22;1116;51.502;7.414;2022-10-31T16:13:03;19.60;10.00
2543;DHT22;1116;51.502;7.414;2022-10-31T16:15:37;19.70;10.00
2543;DHT22;1116;51.502;7.414;2022-10-31T16:18:12;19.50;10.30
2543;DHT22;1116;51.502;7.414;2022-10-31T16:20:48;19.50;10.30
2543;DHT22;1116;51.502;7.414;2022-10-31T16:23:21;19.10;9.90
2543;DHT22;1116;51.502;7.414;2022-10-31T16:25:52;19.40;10.90
2543;DHT22;1116;51.502;7.414;2022-10-31T16:28:28;19.30;10.40
2543;DHT22;1116;51.502;7.414;2022-10-31T16:31:13;19.30;12.00
2543;DHT22;1116;51.502;7.414;2022-10-31T16:33:46;19.20;11.80
2543;DHT22;1116;51.502;7.414;2022-10-31T16:36:30;19.10;12.80
2543;DHT22;1116;51.502;7.414;2022-10-31T16:39:04;19.00;13.50
2543;DHT22;1116;51.502;7.414;2022-10-31T16:41:38;18.90;13.90
2543;DHT22;1116;51.502;7.414;2022-10-31T16:44:18;18.80;13.90
2543;DHT22;1116;51.502;7.414;2022-10-31T16:47:11;18.60;15.20
2543;DHT22;1116;51.502;7.414;2022-10-31T16:49:44;18.50;15.20
2543;DHT22;1116;51.502;7.414;2022-10-31T16:52:17;18.40;15.80
2543;DHT22;1116;51.502;7.414;2022-10-31T16:54:51;18.30;16.40
2543;DHT22;1116;51.502;7.414;2022-10-31T16:57:27;18.20;17.00
2543;DHT22;1116;51.502;7.414;2022-10-31T17:00:03;18.10;17.30
2543;DHT22;1116;51.502;7.414;2022-10-31T17:02:35;18.00;18.30
2543;DHT22;1116;51.502;7.414;2022-10-31T17:05:12;17.80;18.50
2543;DHT22;1116;51.502;7.414;2022-10-31T17:07:47;17.70;19.10
2543;DHT22;1116;51.502;7.414;2022-10-31T17:10:18;17.60;17.30
2543;DHT22;1116;51.502;7.414;2022-10-31T17:12:49;17.60;18.80
2543;DHT22;1116;51.502;7.414;2022-10-31T17:15:28;17.50;18.90